createdAt,value
2022-08-21T00:00:55.867Z,65.70
2022-08-21T00:05:58.180Z,65.70
2022-08-21T00:11:00.759Z,66.10
2022-08-21T00:16:04.076Z,65.50
2022-08-21T00:21:06.366Z,65.50
2022-08-21T00:26:10.811Z,66.10
2022-08-21T00:31:13.100Z,65.50
2022-08-21T00:36:15.908Z,65.50
2022-08-21T00:41:36.807Z,65.50
2022-08-21T00:46:42.496Z,65.40
2022-08-21T00:51:56.150Z,66.00
2022-08-21T00:57:02.841Z,65.30
2022-08-21T01:02:08.100Z,65.20
2022-08-21T01:07:11.109Z,65.10
2022-08-21T01:12:14.526Z,65.10
2022-08-21T01:17:19.280Z,65.10
2022-08-21T01:22:21.466Z,65.00
2022-08-21T01:27:23.761Z,65.30
2022-08-21T01:32:26.564Z,65.20
2022-08-21T01:37:28.753Z,64.90
2022-08-21T01:42:30.944Z,65.50
2022-08-21T01:47:33.440Z,64.90
2022-08-21T01:52:35.631Z,64.80
2022-08-21T01:57:38.435Z,64.90
2022-08-21T02:02:41.752Z,65.00
2022-08-21T02:07:49.162Z,64.60
2022-08-21T02:12:51.842Z,64.50
2022-08-21T02:17:58.454Z,64.40
2022-08-21T02:23:01.123Z,64.30
2022-08-21T02:28:09.590Z,64.30
2022-08-21T02:33:13.216Z,64.20
2022-08-21T02:38:20.109Z,64.50
2022-08-21T02:43:25.342Z,64.10
2022-08-21T02:48:30.734Z,64.10
2022-08-21T02:53:34.869Z,64.00
2022-08-21T02:58:41.018Z,64.00
2022-08-21T03:03:45.158Z,63.80
2022-08-21T03:08:47.681Z,64.10
2022-08-21T03:13:49.871Z,64.20
2022-08-21T03:18:53.699Z,63.80
2022-08-21T03:23:56.197Z,63.70
2022-08-21T03:28:58.489Z,63.50
2022-08-21T03:34:00.683Z,63.60
2022-08-21T03:39:04.611Z,63.60
2022-08-21T03:44:06.904Z,64.30
2022-08-21T03:49:09.103Z,63.70
2022-08-21T03:54:11.266Z,64.20
2022-08-21T03:59:13.689Z,63.60
2022-08-21T04:04:15.971Z,63.60
2022-08-21T04:09:19.290Z,63.70
2022-08-21T04:14:21.609Z,63.60
2022-08-21T04:19:24.591Z,63.60
2022-08-21T04:24:26.780Z,63.90
2022-08-21T04:29:32.351Z,63.60
2022-08-21T04:34:37.096Z,63.70
2022-08-21T04:39:39.443Z,63.40
2022-08-21T04:44:42.091Z,64.20
2022-08-21T04:49:45.816Z,63.90
2022-08-21T04:54:53.130Z,64.00
2022-08-21T04:59:57.156Z,64.10
2022-08-21T05:05:00.645Z,64.20
2022-08-21T05:10:04.302Z,64.30
2022-08-21T05:15:07.019Z,64.70
2022-08-21T05:20:15.336Z,64.40
2022-08-21T05:25:17.629Z,64.60
2022-08-21T05:30:24.731Z,64.60
2022-08-21T05:35:28.830Z,64.60
2022-08-21T05:40:31.799Z,64.60
2022-08-21T05:45:41.781Z,64.40
2022-08-21T05:50:47.213Z,64.50
2022-08-21T05:55:50.530Z,64.40
2022-08-21T06:00:53.425Z,64.70
2022-08-21T06:05:56.441Z,64.50
2022-08-21T06:11:00.363Z,64.60
2022-08-21T06:16:08.806Z,64.50
2022-08-21T06:21:12.420Z,64.90
2022-08-21T06:26:15.434Z,64.60
2022-08-21T06:31:23.263Z,65.40
2022-08-21T06:36:25.551Z,64.70
2022-08-21T06:41:27.940Z,64.60
2022-08-21T06:46:31.866Z,64.60
2022-08-21T06:51:38.628Z,64.70
2022-08-21T06:56:41.575Z,64.80
2022-08-21T07:01:44.515Z,64.80
2022-08-21T07:06:47.997Z,64.30
2022-08-21T07:11:55.850Z,63.90
2022-08-21T07:16:58.620Z,63.50
2022-08-21T07:22:03.172Z,63.30
2022-08-21T07:27:09.804Z,63.20
2022-08-21T07:32:21.291Z,63.00
2022-08-21T07:37:23.826Z,62.20
2022-08-21T07:42:26.766Z,62.30
2022-08-21T07:47:42.492Z,61.50
2022-08-21T07:52:54.464Z,61.40
2022-08-21T07:57:56.769Z,61.30
2022-08-21T08:03:00.887Z,61.20
2022-08-21T08:08:08.120Z,61.50
2022-08-21T08:13:11.499Z,60.50
2022-08-21T08:18:27.331Z,61.00
2022-08-21T08:23:31.698Z,61.00
2022-08-21T08:28:36.622Z,61.10
2022-08-21T08:33:38.892Z,61.00
2022-08-21T08:38:41.513Z,61.00
2022-08-21T08:43:55.371Z,60.90
2022-08-21T08:49:23.554Z,61.00
2022-08-21T08:54:35.976Z,61.20
2022-08-21T08:59:44.218Z,61.30
2022-08-21T09:04:49.270Z,61.30
2022-08-21T09:10:24.304Z,61.30
2022-08-21T09:15:41.946Z,61.30
2022-08-21T09:21:13.405Z,61.50
2022-08-21T09:26:25.593Z,61.40
2022-08-21T09:31:39.174Z,61.30
2022-08-21T09:36:52.187Z,61.40
2022-08-21T09:42:07.401Z,61.60
2022-08-21T09:47:18.277Z,62.20
2022-08-21T09:52:26.026Z,61.50
2022-08-21T09:57:46.250Z,61.10
2022-08-21T10:02:52.658Z,61.20
2022-08-21T10:07:56.825Z,61.00
2022-08-21T10:13:22.349Z,60.90
2022-08-21T10:18:33.162Z,60.70
2022-08-21T10:23:44.134Z,60.50
2022-08-21T10:29:35.853Z,60.40
2022-08-21T10:35:15.487Z,60.30
2022-08-21T10:40:25.895Z,60.10
2022-08-21T10:46:03.267Z,60.30
2022-08-21T10:51:43.723Z,60.00
2022-08-21T10:56:56.762Z,59.80
2022-08-21T11:02:34.773Z,60.00
2022-08-21T11:08:05.929Z,59.60
2022-08-21T11:13:30.676Z,59.80
2022-08-21T11:19:06.582Z,59.30
2022-08-21T11:24:32.617Z,59.90
2022-08-21T11:29:40.541Z,60.00
2022-08-21T11:35:08.993Z,60.00
2022-08-21T11:40:26.028Z,60.40
2022-08-21T11:45:28.349Z,60.20
2022-08-21T11:50:35.571Z,60.20
2022-08-21T11:55:44.581Z,60.20
2022-08-21T12:00:52.214Z,60.30
2022-08-21T12:06:00.750Z,60.40
2022-08-21T12:11:16.759Z,60.30
2022-08-21T12:16:34.686Z,60.40
2022-08-21T12:21:55.527Z,60.20
2022-08-21T12:27:02.116Z,60.20
2022-08-21T12:32:10.546Z,60.10
2022-08-21T12:37:22.354Z,60.10
2022-08-21T12:42:39.386Z,60.00
2022-08-21T12:47:50.223Z,60.10
2022-08-21T12:53:03.624Z,60.10
2022-08-21T12:58:06.423Z,60.20
2022-08-21T13:03:09.097Z,60.30
2022-08-21T13:08:14.766Z,60.30
2022-08-21T13:13:24.998Z,60.40
2022-08-21T13:18:34.730Z,60.60
2022-08-21T13:23:37.023Z,60.70
2022-08-21T13:28:39.417Z,61.20
2022-08-21T13:33:42.548Z,61.00
2022-08-21T13:38:46.717Z,61.10
2022-08-21T13:44:02.156Z,61.30
2022-08-21T13:49:07.113Z,61.40
2022-08-21T13:54:40.410Z,61.50
2022-08-21T13:59:42.792Z,61.70
2022-08-21T14:04:57.276Z,61.90
2022-08-21T14:10:20.242Z,62.10
2022-08-21T14:15:30.019Z,62.60
2022-08-21T14:20:35.398Z,62.70
2022-08-21T14:25:45.639Z,62.50
2022-08-21T14:30:51.422Z,62.50
2022-08-21T14:35:54.628Z,62.50
2022-08-21T14:41:06.029Z,62.60
2022-08-21T14:46:14.426Z,62.80
2022-08-21T14:51:16.854Z,62.80
2022-08-21T14:56:24.271Z,62.90
2022-08-21T15:01:28.126Z,63.20
2022-08-21T15:06:30.692Z,63.10
2022-08-21T15:11:41.674Z,63.10
2022-08-21T15:16:45.313Z,62.80
2022-08-21T15:21:47.743Z,63.10
2022-08-21T15:26:50.509Z,63.60
2022-08-21T15:32:02.137Z,63.50
2022-08-21T15:37:08.604Z,63.60
2022-08-21T15:42:13.101Z,63.80
2022-08-21T15:47:19.186Z,63.80
2022-08-21T15:52:22.742Z,63.90
2022-08-21T15:57:26.776Z,63.90
2022-08-21T16:02:34.696Z,64.20
2022-08-21T16:07:37.614Z,64.00
2022-08-21T16:12:45.421Z,63.90
2022-08-21T16:17:52.216Z,64.20
2022-08-21T16:22:56.683Z,64.00
2022-08-21T16:28:01.412Z,64.10
2022-08-21T16:33:06.156Z,64.20
2022-08-21T16:38:08.451Z,64.30
2022-08-21T16:43:11.050Z,64.60
2022-08-21T16:48:13.342Z,64.50
2022-08-21T16:53:16.659Z,64.70
2022-08-21T16:58:30.210Z,64.90
2022-08-21T17:03:45.717Z,65.00
2022-08-21T17:08:52.501Z,65.20
2022-08-21T17:13:57.562Z,64.90
2022-08-21T17:19:00.463Z,65.50
2022-08-21T17:24:03.164Z,65.70
2022-08-21T17:29:09.445Z,66.10
2022-08-21T17:34:14.043Z,66.10
2022-08-21T17:39:22.306Z,66.10
2022-08-21T17:44:33.206Z,66.20
2022-08-21T17:49:36.322Z,65.80
2022-08-21T17:54:40.870Z,65.30
2022-08-21T17:59:43.364Z,65.10
2022-08-21T18:04:46.377Z,64.90
2022-08-21T18:09:48.971Z,64.60
2022-08-21T18:14:51.674Z,64.60
2022-08-21T18:19:54.401Z,64.10
2022-08-21T18:24:57.487Z,63.80
2022-08-21T18:30:03.061Z,63.60
2022-08-21T18:35:07.438Z,63.40
2022-08-21T18:40:15.818Z,63.30
2022-08-21T18:45:20.837Z,63.30
2022-08-21T18:50:26.416Z,63.20
2022-08-21T18:55:30.301Z,63.40
2022-08-21T19:00:44.352Z,63.30
2022-08-21T19:05:47.861Z,62.90
2022-08-21T19:10:54.919Z,62.90
2022-08-21T19:16:04.139Z,62.90
2022-08-21T19:21:07.789Z,62.90
2022-08-21T19:26:13.129Z,62.90
2022-08-21T19:31:19.740Z,63.00
2022-08-21T19:36:34.528Z,63.00
2022-08-21T19:41:51.130Z,63.10
2022-08-21T19:46:57.687Z,63.10
2022-08-21T19:52:01.813Z,63.20
2022-08-21T19:57:06.699Z,63.20
2022-08-21T20:02:15.098Z,63.30
2022-08-21T20:07:18.772Z,62.80
2022-08-21T20:12:30.248Z,63.70
2022-08-21T20:17:33.950Z,63.30
2022-08-21T20:22:36.854Z,63.30
2022-08-21T20:27:40.495Z,63.60
2022-08-21T20:32:45.946Z,63.50
2022-08-21T20:37:58.616Z,63.20
2022-08-21T20:43:04.935Z,63.20
2022-08-21T20:48:12.470Z,63.90
2022-08-21T20:53:53.140Z,63.40
2022-08-21T20:59:14.672Z,63.40
2022-08-21T21:04:26.784Z,63.70
2022-08-21T21:09:41.126Z,63.40
2022-08-21T21:14:48.833Z,63.40
2022-08-21T21:20:03.444Z,63.50
2022-08-21T21:25:27.637Z,63.60
2022-08-21T21:30:47.250Z,63.70
2022-08-21T21:36:12.130Z,64.00
2022-08-21T21:41:42.928Z,64.10
2022-08-21T21:47:00.925Z,63.80
2022-08-21T21:52:21.691Z,64.20
2022-08-21T21:57:35.901Z,63.40
2022-08-21T22:03:03.406Z,64.20
2022-08-21T22:08:12.417Z,64.00
2022-08-21T22:13:28.225Z,64.80
2022-08-21T22:18:36.548Z,64.20
2022-08-21T22:23:52.347Z,64.20
2022-08-21T22:28:55.153Z,64.10
2022-08-21T22:34:17.825Z,64.10
2022-08-21T22:45:09.394Z,64.00
2022-08-21T22:50:21.790Z,64.10
2022-08-21T23:01:23.186Z,64.40
2022-08-21T23:06:43.678Z,64.00
2022-08-21T23:11:50.998Z,64.00
2022-08-21T23:16:57.782Z,64.30
2022-08-21T23:22:22.246Z,64.00
2022-08-21T23:28:11.784Z,63.90
2022-08-21T23:33:38.803Z,63.70
2022-08-21T23:39:26.107Z,63.60
2022-08-21T23:50:28.839Z,63.60
2022-08-21T23:56:22.503Z,63.60
